Time;durP1;ratioP1;P1;durP2;ratioP2;P2;SDS_P1;SDS_P2;PMS_P1;PMS_P2;Temp;Humidity;BMP_temperature;BMP_pressure;BME280_temperature;BME280_humidity;BME280_pressure;Samples;Min_cycle;Max_cycle;Signal;HPM_P1;HPM_P2
2022/10/16 00:00:41;;;;;;;36.72;4.85;;;;;;;25.65;100.00;97731.72;5010615;28;20077;-58
2022/10/16 00:03:07;;;;;;;33.40;4.63;;;;;;;24.74;100.00;97727.88;5010074;28;20029;-59
2022/10/16 00:05:37;;;;;;;28.02;3.92;;;;;;;24.60;100.00;97726.66;5010165;28;20091;-57
2022/10/16 00:08:03;;;;;;;32.85;4.35;;;;;;;25.16;100.00;97721.72;5008813;28;20103;-58
2022/10/16 00:10:28;;;;;;;28.02;4.30;;;;;;;25.70;100.00;97721.38;5012028;28;20049;-57
2022/10/16 00:12:54;;;;;;;39.67;4.90;;;;;;;25.97;100.00;97717.56;5007782;28;20067;-57
2022/10/16 00:15:19;;;;;;;32.92;4.78;;;;;;;24.78;100.00;97716.75;5009188;28;20036;-56
2022/10/16 00:17:44;;;;;;;31.67;4.22;;;;;;;24.86;100.00;97723.13;5008343;28;20483;-59
2022/10/16 00:20:10;;;;;;;38.80;4.65;;;;;;;25.08;100.00;97722.53;5010932;28;20029;-61
2022/10/16 00:22:35;;;;;;;30.67;3.95;;;;;;;25.06;100.00;97729.88;5011689;28;20075;-58
2022/10/16 00:25:00;;;;;;;24.33;3.80;;;;;;;25.23;100.00;97743.28;5009406;28;20065;-59
2022/10/16 00:27:26;;;;;;;30.02;4.40;;;;;;;24.78;100.00;97738.09;5011370;28;20061;-57
2022/10/16 00:29:52;;;;;;;41.55;5.72;;;;;;;25.23;100.00;97735.25;5011433;28;20059;-57
2022/10/16 00:32:19;;;;;;;43.85;5.63;;;;;;;25.48;100.00;97734.38;5015723;28;20061;-57
2022/10/16 00:34:45;;;;;;;29.58;3.97;;;;;;;25.28;100.00;97735.66;5015613;28;20660;-56
2022/10/16 00:37:10;;;;;;;31.98;4.28;;;;;;;25.72;100.00;97730.06;5014170;28;20045;-57
2022/10/16 00:39:36;;;;;;;31.80;4.57;;;;;;;24.81;100.00;97729.78;5013639;28;20606;-56
2022/10/16 00:42:01;;;;;;;34.60;4.60;;;;;;;25.26;100.00;97734.97;5014758;28;20048;-56
2022/10/16 00:44:47;;;;;;;30.67;4.32;;;;;;;24.75;100.00;97748.25;5014166;28;20033;-57
2022/10/16 00:47:21;;;;;;;31.27;4.32;;;;;;;24.54;100.00;97743.31;5015247;28;20041;-56
2022/10/16 00:49:49;;;;;;;37.95;5.25;;;;;;;24.35;100.00;97742.47;5014547;28;20041;-57
2022/10/16 00:52:15;;;;;;;33.03;4.35;;;;;;;25.24;100.00;97736.97;5014037;28;20037;-57
2022/10/16 00:54:40;;;;;;;43.05;5.05;;;;;;;25.30;100.00;97725.66;5014766;28;20698;-57
2022/10/16 00:57:06;;;;;;;30.75;4.22;;;;;;;25.17;100.00;97732.25;5014448;28;20045;-59
2022/10/16 00:59:36;;;;;;;27.80;4.20;;;;;;;24.88;100.00;97731.81;5014363;28;20045;-58
2022/10/16 01:02:04;;;;;;;30.90;4.43;;;;;;;24.52;100.00;97734.56;5017066;28;20128;-57
2022/10/16 01:04:36;;;;;;;30.10;4.18;;;;;;;24.66;100.00;97739.34;5013604;28;20468;-59
2022/10/16 01:07:04;;;;;;;;;;;;;;;25.58;100.00;97745.75;5014769;28;20102;-57
2022/10/16 01:10:07;;;;;;;27.65;4.00;;;;;;;25.16;100.00;97745.75;5016765;28;19912;-56
2022/10/16 01:12:39;;;;;;;26.95;4.00;;;;;;;24.81;100.00;97760.94;5015908;28;20077;-58
2022/10/16 01:15:26;;;;;;;26.48;3.55;;;;;;;24.92;100.00;97759.81;5015004;28;20059;-59
2022/10/16 01:18:05;;;;;;;31.13;4.47;;;;;;;24.17;100.00;97755.84;5016180;28;20042;-57
2022/10/16 01:20:37;;;;;;;24.10;3.88;;;;;;;23.82;100.00;97741.56;5010806;28;20494;-60
2022/10/16 01:23:25;;;;;;;29.42;4.20;;;;;;;24.58;100.00;97739.31;5016518;28;20056;-59
2022/10/16 01:26:11;;;;;;;34.92;4.70;;;;;;;24.93;100.00;97740.16;5014690;28;20217;-57
2022/10/16 01:28:44;;;;;;;31.38;4.28;;;;;;;24.95;100.00;97743.50;5015861;28;20080;-57
2022/10/16 01:31:14;;;;;;;23.85;3.75;;;;;;;25.55;100.00;97751.41;5014233;28;20044;-56
2022/10/16 01:33:47;;;;;;;28.25;3.97;;;;;;;25.12;100.00;97755.91;5015442;28;20029;-58
2022/10/16 01:36:23;;;;;;;28.15;4.22;;;;;;;24.81;100.00;97759.13;5014421;28;20070;-57
2022/10/16 01:38:53;;;;;;;27.40;3.90;;;;;;;24.75;100.00;97749.06;5012926;28;20025;-59
2022/10/16 01:41:24;;;;;;;27.38;3.80;;;;;;;24.97;100.00;97749.50;5012618;28;20466;-57
2022/10/16 01:44:01;;;;;;;26.15;3.80;;;;;;;25.57;100.00;97756.59;5014225;28;20029;-59
2022/10/16 01:46:30;;;;;;;24.63;3.95;;;;;;;24.50;100.00;97752.56;5011622;28;20044;-58
2022/10/16 01:48:55;;;;;;;26.02;4.05;;;;;;;24.16;100.00;97764.00;5014094;28;20137;-56
2022/10/16 01:51:23;;;;;;;29.88;4.28;;;;;;;24.14;100.00;97758.00;5015994;28;20120;-56
2022/10/16 01:53:53;;;;;;;30.30;4.15;;;;;;;25.08;100.00;97765.22;5015175;28;20053;-57
2022/10/16 01:56:22;;;;;;;29.90;4.18;;;;;;;25.02;100.00;97768.56;5015309;28;20461;-60
2022/10/16 01:58:54;;;;;;;31.35;4.18;;;;;;;25.08;100.00;97775.91;5013657;28;20932;-56
2022/10/16 02:01:22;;;;;;;37.03;4.85;;;;;;;24.55;100.00;97774.28;5012710;28;20162;-58
2022/10/16 02:03:52;;;;;;;34.95;4.63;;;;;;;24.38;100.00;97774.16;5014934;28;20116;-56
2022/10/16 02:06:18;;;;;;;35.47;4.90;;;;;;;24.32;100.00;97780.09;5012310;28;20521;-57
2022/10/16 02:08:43;;;;;;;30.30;4.10;;;;;;;24.30;100.00;97786.56;5011756;28;20033;-56
2022/10/16 02:11:10;;;;;;;32.03;4.53;;;;;;;24.20;100.00;97784.81;5013533;28;20069;-56
2022/10/16 02:13:45;;;;;;;30.30;4.60;;;;;;;24.85;100.00;97786.31;5013149;28;20021;-57
2022/10/16 02:16:12;;;;;;;29.10;3.85;;;;;;;25.14;100.00;97790.44;5013657;28;20045;-56
2022/10/16 02:18:37;;;;;;;40.88;4.97;;;;;;;25.00;100.00;97783.88;5014087;28;20128;-56
2022/10/16 02:21:16;;;;;;;30.38;4.05;;;;;;;25.64;100.00;97781.63;5012132;28;20084;-56
2022/10/16 02:24:02;;;;;;;31.10;4.20;;;;;;;24.23;100.00;97778.38;5013349;28;20537;-56
2022/10/16 02:26:40;;;;;;;25.20;3.88;;;;;;;24.67;100.00;97786.38;5013267;28;20034;-55
2022/10/16 02:29:10;;;;;;;23.67;3.80;;;;;;;24.83;100.00;97780.28;5017682;28;20033;-57
2022/10/16 02:31:41;;;;;;;30.98;4.30;;;;;;;25.08;100.00;97789.25;5011634;28;20038;-59
2022/10/16 02:34:08;;;;;;;27.63;3.90;;;;;;;23.99;100.00;97787.84;5013497;28;20056;-56
2022/10/16 02:36:35;;;;;;;29.23;3.90;;;;;;;24.74;100.00;97779.41;5012502;28;20052;-58
2022/10/16 02:39:04;;;;;;;28.00;4.15;;;;;;;24.71;100.00;97776.22;5012364;28;20104;-57
2022/10/16 02:41:31;;;;;;;35.95;4.20;;;;;;;25.31;100.00;97783.34;5011077;28;20038;-59
2022/10/16 02:43:56;;;;;;;33.70;4.22;;;;;;;25.06;100.00;97783.25;5015632;28;20473;-56
2022/10/16 02:46:21;;;;;;;28.25;4.25;;;;;;;24.24;100.00;97775.56;5014244;28;20522;-58
2022/10/16 02:48:47;;;;;;;28.90;4.07;;;;;;;24.55;100.00;97774.28;5013823;28;20033;-57
2022/10/16 02:51:12;;;;;;;24.08;3.42;;;;;;;24.52;100.00;97780.78;5013261;28;20045;-58
2022/10/16 02:53:38;;;;;;;25.88;3.47;;;;;;;25.62;100.00;97774.75;5011554;28;20112;-56
2022/10/16 02:56:03;;;;;;;23.60;3.58;;;;;;;25.34;100.00;97786.53;5011221;28;20604;-56
2022/10/16 02:58:29;;;;;;;25.77;3.80;;;;;;;24.96;100.00;97774.50;5011939;28;20521;-56
2022/10/16 03:00:55;;;;;;;36.90;4.95;;;;;;;25.18;100.00;97776.63;5010178;28;20422;-57
2022/10/16 03:03:20;;;;;;;32.80;4.10;;;;;;;25.42;100.00;97782.22;5012649;28;20107;-59
2022/10/16 03:05:45;;;;;;;29.13;4.05;;;;;;;24.90;100.00;97780.50;5014073;28;20038;-56
2022/10/16 03:08:12;;;;;;;26.38;3.85;;;;;;;24.89;100.00;97776.16;5011889;28;20033;-58
2022/10/16 03:10:37;;;;;;;28.95;4.07;;;;;;;25.62;100.00;97783.59;5014594;28;20042;-56
2022/10/16 03:13:03;;;;;;;33.55;4.43;;;;;;;26.07;100.00;97784.22;5010809;28;20052;-56
2022/10/16 03:15:28;;;;;;;26.27;3.85;;;;;;;25.53;100.00;97788.13;5011142;28;20065;-57
2022/10/16 03:17:54;;;;;;;26.88;4.03;;;;;;;25.20;100.00;97787.97;5009725;28;20022;-59
2022/10/16 03:20:19;;;;;;;25.70;3.90;;;;;;;25.60;100.00;97785.59;5012020;28;20029;-57
2022/10/16 03:22:45;;;;;;;29.48;4.10;;;;;;;25.31;100.00;97788.69;5013923;28;20059;-57
2022/10/16 03:25:10;;;;;;;35.40;4.32;;;;;;;24.99;100.00;97791.03;5011724;28;20452;-56
2022/10/16 03:27:36;;;;;;;26.95;4.15;;;;;;;24.96;100.00;97787.84;5012464;28;20550;-56
2022/10/16 03:30:02;;;;;;;30.35;4.20;;;;;;;25.46;100.00;97788.94;5013210;28;20462;-56
2022/10/16 03:32:28;;;;;;;32.88;4.30;;;;;;;25.38;100.00;97792.38;5012233;28;20037;-57
2022/10/16 03:34:54;;;;;;;30.17;3.92;;;;;;;26.19;100.00;97795.41;5014169;28;20032;-58
2022/10/16 03:37:19;;;;;;;43.22;5.25;;;;;;;24.34;100.00;97794.13;5012363;28;20407;-57
2022/10/16 03:39:45;;;;;;;40.92;5.43;;;;;;;23.59;100.00;97785.59;5008853;28;20487;-56
2022/10/16 03:42:10;;;;;;;27.45;3.65;;;;;;;23.05;100.00;97788.13;5011832;28;20087;-57
2022/10/16 03:44:35;;;;;;;28.33;4.35;;;;;;;23.76;100.00;97789.25;5011333;28;20037;-57
2022/10/16 03:47:01;;;;;;;27.98;4.15;;;;;;;23.39;100.00;97790.19;5012831;28;20045;-57
2022/10/16 03:49:26;;;;;;;31.67;4.75;;;;;;;23.60;100.00;97790.75;5013761;28;20408;-57
2022/10/16 03:51:51;;;;;;;28.10;4.35;;;;;;;24.05;100.00;97805.03;5009718;28;20628;-57
2022/10/16 03:54:17;;;;;;;24.13;3.80;;;;;;;24.16;100.00;97801.28;5009555;28;20025;-56
2022/10/16 03:56:42;;;;;;;30.52;4.30;;;;;;;24.04;100.00;97798.88;5012756;28;20487;-59
2022/10/16 03:59:07;;;;;;;26.13;4.13;;;;;;;23.78;100.00;97795.25;5013654;28;20183;-60
2022/10/16 04:01:33;;;;;;;37.00;5.07;;;;;;;23.85;100.00;97804.34;5008998;28;20452;-59
2022/10/16 04:03:58;;;;;;;22.73;4.00;;;;;;;23.88;100.00;97804.03;5012702;28;20744;-59
2022/10/16 04:06:23;;;;;;;29.15;4.30;;;;;;;22.97;100.00;97793.31;5016605;28;20116;-59
2022/10/16 04:08:49;;;;;;;31.88;4.40;;;;;;;24.04;100.00;97796.22;5018471;28;20231;-58
2022/10/16 04:11:14;;;;;;;26.70;4.20;;;;;;;23.97;100.00;97795.16;5017661;28;20132;-56
2022/10/16 04:13:40;;;;;;;30.15;4.80;;;;;;;22.84;100.00;97809.56;5019085;28;20021;-57
2022/10/16 04:16:05;;;;;;;25.25;4.10;;;;;;;22.69;100.00;97806.53;5018328;28;20080;-56
2022/10/16 04:18:30;;;;;;;25.45;4.10;;;;;;;22.80;100.00;97803.72;5016523;28;20577;-56
2022/10/16 04:20:56;;;;;;;26.40;4.10;;;;;;;23.34;100.00;97816.41;5015855;28;20216;-57
2022/10/16 04:23:22;;;;;;;30.33;4.22;;;;;;;23.52;100.00;97816.44;5016875;28;20030;-56
2022/10/16 04:25:48;;;;;;;40.03;5.28;;;;;;;23.04;100.00;97829.00;5014227;28;20056;-56
2022/10/16 04:28:13;;;;;;;21.08;3.55;;;;;;;24.05;100.00;97835.16;5018266;28;20052;-56
2022/10/16 04:30:39;;;;;;;25.20;4.07;;;;;;;23.84;100.00;97830.16;5017921;28;20048;-59
2022/10/16 04:33:05;;;;;;;22.83;3.58;;;;;;;23.82;100.00;97836.59;5015774;28;20036;-60
2022/10/16 04:35:30;;;;;;;27.38;4.00;;;;;;;23.82;100.00;97836.59;5018258;28;20037;-59
2022/10/16 04:37:57;;;;;;;32.83;4.80;;;;;;;24.01;100.00;97831.13;5015843;28;20025;-60
2022/10/16 04:40:23;;;;;;;26.30;4.60;;;;;;;23.80;100.00;97819.94;5015549;28;20103;-57
2022/10/16 04:42:48;;;;;;;27.92;4.13;;;;;;;24.15;100.00;97831.59;5019175;28;20029;-57
2022/10/16 04:45:14;;;;;;;24.98;4.15;;;;;;;23.85;100.00;97828.31;5014463;28;20052;-57
2022/10/16 04:47:39;;;;;;;26.50;4.30;;;;;;;23.32;100.00;97823.69;5018075;28;20052;-58
2022/10/16 04:50:06;;;;;;;31.10;4.72;;;;;;;23.41;100.00;97825.47;5019207;28;20033;-56
2022/10/16 04:52:31;;;;;;;29.50;4.32;;;;;;;24.38;100.00;97823.97;5014492;28;20032;-56
2022/10/16 04:55:00;;;;;;;25.58;4.38;;;;;;;23.59;100.00;97826.34;5014164;28;20033;-58
2022/10/16 04:57:26;;;;;;;29.42;5.00;;;;;;;23.46;100.00;97831.19;5017950;28;20037;-57
2022/10/16 04:59:52;;;;;;;41.50;5.68;;;;;;;23.50;100.00;97818.44;5018109;28;20033;-56
2022/10/16 05:02:17;;;;;;;32.50;4.65;;;;;;;23.63;100.00;97817.06;5015250;28;20059;-56
2022/10/16 05:04:42;;;;;;;26.75;4.18;;;;;;;23.48;100.00;97815.91;5018553;28;20053;-57
2022/10/16 05:07:08;;;;;;;32.15;5.07;;;;;;;23.48;100.00;97814.06;5017417;28;20128;-57
2022/10/16 05:09:33;;;;;;;29.75;4.53;;;;;;;23.31;100.00;97814.06;5016777;28;20025;-57
2022/10/16 05:11:58;;;;;;;26.88;4.20;;;;;;;23.44;100.00;97817.19;5018996;28;20124;-58
2022/10/16 05:14:24;;;;;;;33.60;4.53;;;;;;;24.06;100.00;97822.69;5014147;28;20117;-56
2022/10/16 05:16:49;;;;;;;29.52;4.40;;;;;;;23.50;100.00;97832.56;5018400;28;20052;-58
2022/10/16 05:19:14;;;;;;;26.77;4.25;;;;;;;23.89;100.00;97827.00;5012716;28;20021;-56
2022/10/16 05:21:40;;;;;;;24.00;3.63;;;;;;;24.48;100.00;97822.03;5013752;28;20045;-58
2022/10/16 05:24:05;;;;;;;33.38;4.45;;;;;;;24.46;100.00;97831.19;5013170;28;20049;-56
2022/10/16 05:26:30;;;;;;;36.85;5.28;;;;;;;23.68;100.00;97819.28;5016600;28;20120;-56
2022/10/16 05:28:56;;;;;;;24.17;3.75;;;;;;;24.23;100.00;97829.84;5017353;28;20044;-56
2022/10/16 05:31:21;;;;;;;32.28;4.57;;;;;;;23.73;100.00;97826.81;5014074;28;20522;-59
2022/10/16 05:33:46;;;;;;;27.52;4.38;;;;;;;23.78;100.00;97825.38;5013113;28;20029;-60
2022/10/16 05:36:12;;;;;;;30.42;4.68;;;;;;;22.99;100.00;97834.72;5014065;28;20162;-56
2022/10/16 05:38:38;;;;;;;35.60;4.75;;;;;;;22.87;100.00;97847.34;5014337;28;20040;-56
2022/10/16 05:41:05;;;;;;;30.27;4.38;;;;;;;23.45;100.00;97840.16;5015418;28;20053;-56
2022/10/16 05:43:32;;;;;;;34.55;5.03;;;;;;;22.98;100.00;97842.88;5013868;28;20964;-57
2022/10/16 05:46:04;;;;;;;27.58;4.32;;;;;;;22.87;100.00;97857.16;5015270;28;20495;-58
2022/10/16 05:48:30;;;;;;;29.10;4.40;;;;;;;23.16;100.00;97856.25;5013731;28;20095;-58
2022/10/16 05:51:00;;;;;;;25.55;3.90;;;;;;;24.16;100.00;97865.25;5012417;28;20725;-57
2022/10/16 05:53:31;;;;;;;29.80;4.20;;;;;;;23.91;100.00;97872.97;5013043;28;20086;-57
2022/10/16 05:55:57;;;;;;;33.10;4.60;;;;;;;23.39;100.00;97883.34;5012793;28;20056;-56
2022/10/16 05:58:24;;;;;;;25.40;3.90;;;;;;;24.39;100.00;97881.59;5014184;28;20034;-56
2022/10/16 06:01:00;;;;;;;34.90;4.85;;;;;;;24.52;100.00;97886.53;5015273;28;20566;-56
2022/10/16 06:03:26;;;;;;;28.60;4.55;;;;;;;24.01;100.00;97889.75;5014781;28;20475;-57
2022/10/16 06:05:51;;;;;;;32.05;5.03;;;;;;;23.86;100.00;97885.94;5013074;28;20041;-56
2022/10/16 06:08:18;;;;;;;27.33;4.20;;;;;;;24.19;100.00;97886.28;5010765;28;20037;-56
2022/10/16 06:10:44;;;;;;;32.55;5.43;;;;;;;23.40;100.00;97896.50;5014380;28;20445;-56
2022/10/16 06:13:10;;;;;;;25.33;4.22;;;;;;;23.57;100.00;97889.56;5011732;28;20060;-57
2022/10/16 06:15:35;;;;;;;27.67;4.32;;;;;;;23.38;100.00;97886.97;5012875;28;20129;-56
2022/10/16 06:18:00;;;;;;;29.85;4.53;;;;;;;22.85;100.00;97883.91;5013467;28;20116;-56
2022/10/16 06:20:26;;;;;;;26.70;4.15;;;;;;;23.89;100.00;97896.25;5012326;28;20037;-56
2022/10/16 06:22:51;;;;;;;32.47;5.25;;;;;;;24.70;100.00;97906.03;5013951;28;20122;-56
2022/10/16 06:25:16;;;;;;;28.17;4.78;;;;;;;24.20;100.00;97901.25;5014517;28;20127;-59
2022/10/16 06:27:42;;;;;;;26.75;4.70;;;;;;;23.58;100.00;97904.56;5013628;28;20056;-58
2022/10/16 06:30:08;;;;;;;38.25;5.32;;;;;;;23.37;100.00;97907.44;5012118;28;20451;-57
2022/10/16 06:32:33;;;;;;;30.58;4.43;;;;;;;23.06;100.00;97906.84;5013345;28;20022;-57
2022/10/16 06:34:58;;;;;;;29.52;4.85;;;;;;;23.91;100.00;97904.94;5014433;28;20148;-57
2022/10/16 06:37:24;;;;;;;34.55;5.07;;;;;;;24.27;100.00;97905.00;5010701;28;20037;-59
2022/10/16 06:39:52;;;;;;;36.50;4.90;;;;;;;23.59;100.00;97900.88;5010325;28;20034;-59
2022/10/16 06:42:18;;;;;;;35.35;4.82;;;;;;;24.03;100.00;97895.75;5011908;28;20046;-57
2022/10/16 06:44:43;;;;;;;32.80;5.07;;;;;;;23.69;100.00;97911.47;5011533;28;20036;-57
2022/10/16 06:47:09;;;;;;;31.17;4.70;;;;;;;24.98;100.00;97913.94;5009698;28;20064;-57
2022/10/16 06:49:34;;;;;;;26.95;4.28;;;;;;;25.20;100.00;97918.75;5011170;28;20487;-56
2022/10/16 06:51:59;;;;;;;25.27;4.10;;;;;;;26.00;100.00;97919.50;5013885;28;20042;-57
2022/10/16 06:54:25;;;;;;;35.47;5.07;;;;;;;25.13;100.00;97912.38;5012741;28;20029;-56
2022/10/16 06:56:51;;;;;;;26.65;3.92;;;;;;;24.63;100.00;97905.84;5013053;28;20044;-56
2022/10/16 06:59:16;;;;;;;39.63;4.75;;;;;;;24.42;100.00;97899.97;5013603;28;20033;-56
2022/10/16 07:01:42;;;;;;;49.08;6.32;;;;;;;24.35;100.00;97901.56;5005751;28;20822;-56
2022/10/16 07:04:07;;;;;;;20.33;3.60;;;;;;;24.10;100.00;97919.16;5015088;28;20060;-56
2022/10/16 07:06:34;;;;;;;34.20;5.88;;;;;;;24.16;100.00;97921.19;5015838;28;20033;-59
2022/10/16 07:09:05;;;;;;;23.20;3.75;;;;;;;24.00;100.00;97944.00;5015326;28;20061;-56
2022/10/16 07:11:30;;;;;;;20.30;3.70;;;;;;;24.18;100.00;97957.34;5014243;28;20482;-57
2022/10/16 07:13:55;;;;;;;17.58;3.40;;;;;;;24.39;100.00;97953.56;5015167;28;20120;-58
2022/10/16 07:16:24;;;;;;;26.75;4.05;;;;;;;24.55;100.00;97953.75;5014362;28;20361;-59
2022/10/16 07:18:51;;;;;;;25.98;4.20;;;;;;;23.68;100.00;97963.91;5015910;28;20033;-57
2022/10/16 07:21:20;;;;;;;20.67;3.80;;;;;;;24.56;100.00;97975.94;5012731;28;20428;-58
2022/10/16 07:23:50;;;;;;;36.10;4.75;;;;;;;24.58;100.00;97979.28;5014965;28;20029;-57
2022/10/16 07:26:15;;;;;;;19.85;3.70;;;;;;;24.64;100.00;97976.00;5014142;28;20041;-59
2022/10/16 07:28:42;;;;;;;30.05;4.55;;;;;;;24.51;100.00;97959.53;5013591;28;20033;-57
2022/10/16 07:31:11;;;;;;;25.35;4.20;;;;;;;25.34;100.00;97956.56;5014024;28;20045;-57
2022/10/16 07:33:38;;;;;;;28.27;4.35;;;;;;;24.98;100.00;97981.47;5016958;28;20032;-57
2022/10/16 07:36:04;;;;;;;20.73;3.70;;;;;;;24.63;100.00;97982.34;5014497;28;20141;-58
2022/10/16 07:38:30;;;;;;;20.98;3.95;;;;;;;25.63;100.00;97982.09;5013516;28;20035;-56
2022/10/16 07:40:57;;;;;;;29.52;4.68;;;;;;;25.39;100.00;97986.31;5004461;28;20527;-56
2022/10/16 07:43:23;;;;;;;30.38;4.40;;;;;;;25.22;100.00;97990.66;5008896;28;20497;-59
2022/10/16 07:45:49;;;;;;;37.30;5.22;;;;;;;25.24;100.00;98004.72;5011060;28;20694;-57
2022/10/16 07:48:16;;;;;;;31.25;4.97;;;;;;;24.94;100.00;98008.59;5010099;28;20025;-56
2022/10/16 07:50:42;;;;;;;37.47;5.22;;;;;;;25.00;100.00;98008.00;5009573;28;20034;-58
2022/10/16 07:53:08;;;;;;;39.47;5.60;;;;;;;25.33;100.00;97993.09;5012370;28;20049;-60
2022/10/16 07:55:33;;;;;;;31.25;4.53;;;;;;;25.37;100.00;97982.94;5012497;28;20215;-61
2022/10/16 07:57:58;;;;;;;34.90;5.50;;;;;;;24.62;100.00;97983.31;5008725;28;20017;-59
2022/10/16 08:00:24;;;;;;;40.28;5.60;;;;;;;24.72;100.00;97968.09;5009198;28;20041;-58
2022/10/16 08:02:49;;;;;;;38.72;6.57;;;;;;;24.67;100.00;97974.88;5008503;28;20056;-57
2022/10/16 08:05:14;;;;;;;37.97;6.32;;;;;;;26.04;100.00;97980.47;5007413;28;20017;-57
2022/10/16 08:07:40;;;;;;;33.88;5.22;;;;;;;24.07;100.00;97983.38;5010891;28;20033;-58
2022/10/16 08:10:05;;;;;;;44.92;6.00;;;;;;;24.76;100.00;97980.13;5007966;28;20033;-58
2022/10/16 08:12:31;;;;;;;30.80;4.43;;;;;;;25.90;100.00;97989.91;5009168;28;20033;-58
2022/10/16 08:14:56;;;;;;;28.33;4.50;;;;;;;25.77;100.00;97989.53;5011759;28;20049;-58
2022/10/16 08:17:21;;;;;;;40.42;5.32;;;;;;;25.64;100.00;97989.09;5009106;28;20981;-59
2022/10/16 08:19:48;;;;;;;38.78;5.55;;;;;;;24.87;100.00;97995.06;5010019;28;20127;-57
2022/10/16 08:22:16;;;;;;;44.13;5.78;;;;;;;25.29;100.00;97996.22;5008781;28;20033;-58
2022/10/16 08:24:41;;;;;;;37.22;5.25;;;;;;;24.63;100.00;98011.69;5009922;28;20091;-57
2022/10/16 08:27:08;;;;;;;26.75;4.95;;;;;;;25.69;100.00;98019.69;5007567;28;20125;-58
2022/10/16 08:29:34;;;;;;;20.63;3.90;;;;;;;25.70;100.00;98026.72;5012314;28;20026;-61
2022/10/16 08:31:59;;;;;;;24.88;3.50;;;;;;;25.90;100.00;98021.16;5009409;28;20045;-57
2022/10/16 08:34:24;;;;;;;29.48;4.88;;;;;;;25.88;100.00;98018.63;5009395;28;20534;-58
2022/10/16 08:36:53;;;;;;;21.98;4.00;;;;;;;26.10;100.00;98021.75;5009791;28;20042;-57
2022/10/16 08:39:18;;;;;;;23.63;4.03;;;;;;;25.96;100.00;98016.00;5012039;28;20068;-57
2022/10/16 08:41:50;;;;;;;39.53;5.03;;;;;;;25.79;100.00;98014.25;5009822;28;20764;-57
2022/10/16 08:44:27;;;;;;;40.22;5.38;;;;;;;26.34;100.00;98019.16;5009286;28;20045;-60
2022/10/16 08:47:04;;;;;;;40.78;5.60;;;;;;;26.93;100.00;98020.97;5007968;28;20126;-57
2022/10/16 08:49:30;;;;;;;31.25;4.70;;;;;;;27.31;100.00;98015.97;5010506;28;20078;-57
2022/10/16 08:51:57;;;;;;;25.25;4.35;;;;;;;26.76;100.00;98021.94;5007587;28;20040;-57
2022/10/16 08:54:28;;;;;;;27.13;4.40;;;;;;;26.12;100.00;98022.44;5013298;28;20033;-58
2022/10/16 08:57:11;;;;;;;36.58;5.32;;;;;;;26.48;100.00;98030.22;5012358;28;20595;-57
2022/10/16 08:59:36;;;;;;;29.00;4.85;;;;;;;28.09;100.00;98025.19;5009876;28;20021;-57
2022/10/16 09:02:11;;;;;;;21.98;3.83;;;;;;;27.18;100.00;98026.31;5015230;28;20037;-57
2022/10/16 09:04:49;;;;;;;39.05;4.95;;;;;;;27.75;100.00;98034.31;5029544;28;20112;-59
2022/10/16 09:07:38;;;;;;;34.83;5.00;;;;;;;27.72;100.00;98033.81;5013528;28;20029;-57
2022/10/16 09:10:21;;;;;;;33.15;4.82;;;;;;;27.70;100.00;98036.69;5014580;28;20596;-60
2022/10/16 09:12:52;;;;;;;40.42;5.68;;;;;;;29.02;100.00;98029.69;5007204;28;20026;-59
2022/10/16 09:15:39;;;;;;;32.10;4.57;;;;;;;28.57;100.00;98033.19;5013207;28;20031;-58
2022/10/16 09:18:13;;;;;;;22.52;3.70;;;;;;;27.08;100.00;98038.03;5013304;28;20017;-59
2022/10/16 09:20:55;;;;;;;30.25;4.57;;;;;;;27.34;100.00;98025.53;5011412;28;20041;-57
2022/10/16 09:23:30;;;;;;;19.33;3.20;;;;;;;27.54;100.00;98031.34;5015299;28;20814;-57
2022/10/16 09:25:57;;;;;;;25.50;3.90;;;;;;;27.43;100.00;98030.69;5012166;28;21610;-59
2022/10/16 09:28:22;;;;;;;20.95;3.65;;;;;;;29.44;100.00;98019.44;5012663;28;20717;-57
2022/10/16 09:30:49;;;;;;;28.27;4.35;;;;;;;28.51;100.00;98034.72;5013334;28;20066;-59
2022/10/16 09:33:16;;;;;;;27.98;4.15;;;;;;;28.42;100.00;98035.78;5013218;28;20056;-59
2022/10/16 09:35:44;;;;;;;25.05;4.15;;;;;;;28.98;100.00;98039.09;5013084;28;20499;-58
2022/10/16 09:38:31;;;;;;;35.75;5.32;;;;;;;28.51;100.00;98041.91;5012804;28;20037;-60
2022/10/16 09:40:59;;;;;;;22.73;3.50;;;;;;;29.28;100.00;98046.47;5014050;28;20038;-59
2022/10/16 09:43:40;;;;;;;19.85;3.13;;;;;;;28.54;100.00;98045.09;5013350;28;20173;-57
2022/10/16 09:46:08;;;;;;;33.95;4.93;;;;;;;27.23;100.00;98050.75;5010089;28;20064;-58
2022/10/16 09:48:47;;;;;;;27.55;4.53;;;;;;;28.05;100.00;98056.88;5013150;28;20026;-58
2022/10/16 09:51:25;;;;;;;27.67;4.43;;;;;;;27.69;100.00;98051.06;5011041;28;20104;-57
2022/10/16 09:53:57;;;;;;;28.90;4.72;;;;;;;27.46;100.00;98051.78;5013682;28;20055;-58
2022/10/16 09:56:29;;;;;;;23.20;4.18;;;;;;;28.18;100.00;98064.38;5010381;28;20036;-60
2022/10/16 09:58:56;;;;;;;;;;;;;;;26.70;100.00;98067.09;5011714;28;20114;-57
2022/10/16 10:01:35;;;;;;;28.95;4.53;;;;;;;26.06;100.00;98060.47;5014025;28;19925;-57
2022/10/16 10:04:02;;;;;;;31.05;4.72;;;;;;;26.55;100.00;98058.81;5023774;28;20054;-60
2022/10/16 10:06:31;;;;;;;36.72;5.72;;;;;;;26.62;100.00;98048.34;5013640;28;20380;-60
2022/10/16 10:09:03;;;;;;;34.50;4.25;;;;;;;27.14;100.00;98062.47;5014258;28;20017;-57
2022/10/16 10:11:37;;;;;;;29.08;4.70;;;;;;;27.46;100.00;98061.63;5010854;28;20635;-57
2022/10/16 10:14:17;;;;;;;22.08;3.80;;;;;;;26.69;100.00;98076.13;5012792;28;20414;-59
2022/10/16 10:16:43;;;;;;;28.00;4.63;;;;;;;26.90;100.00;98078.34;5014452;28;20069;-58
2022/10/16 10:19:21;;;;;;;30.58;4.63;;;;;;;27.28;100.00;98072.56;5013100;28;20076;-57
2022/10/16 10:21:47;;;;;;;30.30;6.85;;;;;;;28.23;100.00;98070.06;5012585;28;20083;-57
2022/10/16 10:24:17;;;;;;;19.58;3.53;;;;;;;27.68;100.00;98062.78;5011492;28;20042;-59
2022/10/16 10:27:09;;;;;;;48.67;7.20;;;;;;;27.65;100.00;98071.19;5009092;28;20132;-59
2022/10/16 10:29:42;;;;;;;31.42;4.85;;;;;;;28.20;100.00;98067.72;5013068;28;20109;-59
2022/10/16 10:32:33;;;;;;;28.80;4.38;;;;;;;27.55;100.00;98062.47;5012561;28;20037;-60
2022/10/16 10:35:14;;;;;;;26.75;4.22;;;;;;;29.94;93.60;98062.81;5005598;28;20041;-57
2022/10/16 10:37:48;;;;;;;29.15;4.30;;;;;;;30.47;88.52;98068.91;5008344;28;20086;-60
2022/10/16 10:40:53;;;;;;;24.85;4.85;;;;;;;28.69;98.52;98061.28;5011228;28;20026;-60
2022/10/16 10:43:31;;;;;;;32.10;4.75;;;;;;;27.71;93.77;98059.78;5002466;28;20103;-58
2022/10/16 10:46:14;;;;;;;24.55;4.55;;;;;;;28.98;99.01;98065.13;5013093;28;20129;-58
2022/10/16 10:48:51;;;;;;;29.88;4.55;;;;;;;29.65;92.82;98060.88;5013907;28;20168;-59
2022/10/16 10:51:39;;;;;;;24.05;3.85;;;;;;;30.85;81.56;98071.41;5010863;28;20634;-57
2022/10/16 10:54:52;;;;;;;31.00;4.80;;;;;;;30.50;86.53;98067.72;5012083;28;20017;-59
2022/10/16 10:57:32;;;;;;;30.73;4.70;;;;;;;29.38;91.00;98058.63;4931893;29;20043;-58
2022/10/16 11:00:17;;;;;;;28.58;4.63;;;;;;;28.34;95.29;98060.75;5002748;28;20507;-57
2022/10/16 11:02:57;;;;;;;24.90;4.40;;;;;;;28.86;93.38;98059.34;5011613;28;20103;-59
2022/10/16 11:05:44;;;;;;;17.85;3.33;;;;;;;28.05;100.00;98058.72;5012602;28;20064;-58
2022/10/16 11:08:10;;;;;;;30.42;4.50;;;;;;;29.29;95.71;98065.09;5012771;28;20113;-58
2022/10/16 11:10:47;;;;;;;29.80;4.77;;;;;;;29.59;91.15;98062.47;5009519;28;20104;-58
2022/10/16 11:13:35;;;;;;;28.75;4.03;;;;;;;30.22;85.63;98065.69;5011113;28;20321;-59
2022/10/16 11:16:11;;;;;;;24.35;3.83;;;;;;;29.51;88.67;98076.81;5010126;28;20791;-57
2022/10/16 11:18:48;;;;;;;24.67;3.92;;;;;;;29.66;88.71;98068.78;5011245;28;21095;-57
2022/10/16 11:21:19;;;;;;;28.30;4.50;;;;;;;30.58;82.39;98072.16;5010603;28;20069;-58
2022/10/16 11:23:57;;;;;;;23.67;4.20;;;;;;;29.08;92.19;98070.25;5011213;28;20675;-57
2022/10/16 11:26:27;;;;;;;26.95;3.78;;;;;;;30.44;82.63;98063.94;5010252;28;20041;-59
2022/10/16 11:28:56;;;;;;;27.33;4.35;;;;;;;29.28;85.25;98057.19;5010953;28;20452;-58